Time;durP1;ratioP1;P1;durP2;ratioP2;P2;SDS_P1;SDS_P2;PMS_P1;PMS_P2;Temp;Humidity;BMP_temperature;BMP_pressure;BME280_temperature;BME280_humidity;BME280_pressure;Samples;Min_cycle;Max_cycle;Signal;HPM_P1;HPM_P2
2023/05/08 00:01:23;;;;;;;11.47;10.27;;;13.30;99.90;;;;;;5033889;28;20569;-73
2023/05/08 00:03:53;;;;;;;10.93;9.93;;;13.30;99.90;;;;;;5033330;28;20523;-73
2023/05/08 00:06:20;;;;;;;12.30;10.60;;;13.20;99.90;;;;;;5040225;28;20540;-73
2023/05/08 00:08:47;;;;;;;11.90;10.47;;;13.20;99.90;;;;;;5031396;28;20852;-73
2023/05/08 00:11:14;;;;;;;12.33;11.03;;;13.20;99.90;;;;;;5030948;28;20551;-73
2023/05/08 00:13:40;;;;;;;12.80;10.60;;;13.20;99.90;;;;;;5031032;28;20511;-73
2023/05/08 00:16:10;;;;;;;11.23;10.13;;;13.10;99.90;;;;;;5035061;28;20837;-73
2023/05/08 00:18:37;;;;;;;13.17;10.60;;;13.10;99.90;;;;;;5041372;28;20464;-73
2023/05/08 00:21:05;;;;;;;14.70;10.53;;;13.10;99.90;;;;;;5031182;28;20466;-73
2023/05/08 00:23:32;;;;;;;11.93;10.63;;;13.10;99.90;;;;;;5030752;28;20477;-73
2023/05/08 00:26:00;;;;;;;12.00;10.20;;;13.10;99.90;;;;;;5031049;28;20453;-73
2023/05/08 00:28:26;;;;;;;11.97;10.73;;;13.10;99.90;;;;;;5031844;28;20891;-73
2023/05/08 00:30:53;;;;;;;12.50;10.30;;;13.10;99.90;;;;;;5030923;28;20496;-73
2023/05/08 00:33:20;;;;;;;13.43;10.83;;;13.00;99.90;;;;;;5034623;28;20963;-73
2023/05/08 00:35:46;;;;;;;11.87;10.63;;;13.00;99.90;;;;;;5037399;28;20531;-73
2023/05/08 00:38:14;;;;;;;14.53;10.77;;;13.00;99.90;;;;;;5030709;28;20860;-73
2023/05/08 00:40:41;;;;;;;19.47;10.40;;;13.00;99.90;;;;;;5038768;28;20474;-72
2023/05/08 00:43:08;;;;;;;11.90;9.97;;;13.00;99.90;;;;;;5038606;28;20496;-73
2023/05/08 00:45:37;;;;;;;14.30;11.10;;;13.00;99.90;;;;;;5034480;28;20456;-73
2023/05/08 00:48:04;;;;;;;11.80;10.60;;;12.90;99.90;;;;;;5036118;28;20511;-73
2023/05/08 00:50:32;;;;;;;11.83;10.37;;;12.90;99.90;;;;;;5032912;28;21085;-72
2023/05/08 00:53:01;;;;;;;14.03;10.70;;;12.90;99.90;;;;;;5034000;28;20933;-73
2023/05/08 00:55:30;;;;;;;12.30;11.00;;;12.90;99.90;;;;;;5032180;28;20511;-73
2023/05/08 00:57:57;;;;;;;13.97;11.77;;;12.90;99.90;;;;;;5030307;28;20469;-73
2023/05/08 01:00:24;;;;;;;13.83;10.50;;;12.90;99.90;;;;;;5035418;28;21009;-73
2023/05/08 01:02:51;;;;;;;13.53;11.30;;;12.90;99.90;;;;;;5030437;28;20491;-73
2023/05/08 01:05:18;;;;;;;20.60;11.10;;;12.90;99.90;;;;;;5032723;28;20458;-73
2023/05/08 01:07:45;;;;;;;11.67;10.47;;;12.80;99.90;;;;;;5033006;28;20960;-73
2023/05/08 01:10:11;;;;;;;13.03;10.97;;;12.90;99.90;;;;;;5035643;28;20493;-73
2023/05/08 01:12:52;;;;;;;12.20;11.07;;;12.80;99.90;;;;;;5030237;28;20454;-73
2023/05/08 01:15:27;;;;;;;13.93;11.57;;;12.80;99.90;;;;;;5030490;28;20507;-73
2023/05/08 01:18:03;;;;;;;13.80;12.03;;;12.80;99.90;;;;;;5042666;28;20496;-73
2023/05/08 01:20:39;;;;;;;15.30;12.63;;;12.80;99.90;;;;;;5030805;28;20524;-73
2023/05/08 01:23:37;;;;;;;12.77;11.30;;;12.80;99.90;;;;;;5041645;28;20460;-73
2023/05/08 01:26:41;;;;;;;14.77;11.67;;;12.80;99.90;;;;;;5035898;28;20507;-73
2023/05/08 01:29:42;;;;;;;16.40;12.03;;;12.80;99.90;;;;;;5035901;28;20884;-73
2023/05/08 01:32:15;;;;;;;13.53;11.90;;;12.70;99.90;;;;;;5034932;28;20461;-73
2023/05/08 01:34:51;;;;;;;18.03;12.70;;;12.70;99.90;;;;;;5030097;28;20512;-73
2023/05/08 01:37:26;;;;;;;14.50;12.33;;;12.60;99.90;;;;;;5037168;28;20455;-73
2023/05/08 01:40:02;;;;;;;15.30;12.47;;;12.60;99.90;;;;;;5030247;28;20965;-73
2023/05/08 01:42:39;;;;;;;18.23;12.67;;;12.50;99.90;;;;;;5045415;28;20482;-73
2023/05/08 01:45:12;;;;;;;14.40;12.43;;;12.40;99.90;;;;;;5033351;28;20450;-73
2023/05/08 01:47:41;;;;;;;15.70;12.37;;;12.40;99.90;;;;;;5044702;28;20465;-73
2023/05/08 01:50:14;;;;;;;17.03;11.93;;;12.40;99.90;;;;;;5030054;28;20539;-73
2023/05/08 01:52:45;;;;;;;13.33;11.93;;;12.50;99.90;;;;;;5030068;28;20504;-73
2023/05/08 01:55:17;;;;;;;14.67;12.63;;;12.40;99.90;;;;;;5029975;28;20458;-73
2023/05/08 01:57:48;;;;;;;18.40;12.97;;;12.40;99.90;;;;;;5034299;28;20533;-73
2023/05/08 02:00:19;;;;;;;14.20;12.37;;;12.40;99.90;;;;;;5047661;28;21046;-73
2023/05/08 02:02:47;;;;;;;15.57;11.63;;;12.30;99.90;;;;;;5042450;28;20502;-72
2023/05/08 02:05:16;;;;;;;20.57;13.70;;;12.30;99.90;;;;;;5038973;28;20449;-72
2023/05/08 02:07:46;;;;;;;15.87;12.93;;;12.30;99.90;;;;;;5033188;28;20501;-72
2023/05/08 02:10:15;;;;;;;14.47;12.97;;;12.30;99.90;;;;;;5033628;28;20485;-72
2023/05/08 02:12:43;;;;;;;31.03;13.40;;;12.30;99.90;;;;;;5033629;28;20461;-72
2023/05/08 02:15:13;;;;;;;18.70;13.90;;;12.20;99.90;;;;;;5033597;28;20462;-72
2023/05/08 02:17:41;;;;;;;17.33;12.93;;;12.20;99.90;;;;;;5039288;28;20488;-73
2023/05/08 02:20:13;;;;;;;19.97;14.20;;;12.20;99.90;;;;;;5047912;28;20469;-72
2023/05/08 02:22:42;;;;;;;21.63;14.50;;;12.20;99.90;;;;;;5033527;28;20463;-73
2023/05/08 02:25:13;;;;;;;17.07;14.20;;;12.10;99.90;;;;;;5044894;28;20572;-72
2023/05/08 02:27:42;;;;;;;17.53;12.90;;;12.10;99.90;;;;;;5034567;28;20543;-73
2023/05/08 02:30:12;;;;;;;15.63;13.70;;;12.10;99.90;;;;;;5032849;28;20493;-73
2023/05/08 02:32:40;;;;;;;19.77;14.57;;;12.10;99.90;;;;;;5034720;28;20453;-72
2023/05/08 02:35:12;;;;;;;17.33;13.70;;;12.10;99.90;;;;;;5036882;28;20460;-73
2023/05/08 02:37:40;;;;;;;18.27;13.87;;;12.00;99.90;;;;;;5034756;28;20458;-73
2023/05/08 02:40:10;;;;;;;19.40;14.80;;;12.00;99.90;;;;;;5032975;28;20477;-73
2023/05/08 02:42:37;;;;;;;18.57;14.90;;;12.00;99.90;;;;;;5041097;28;20459;-73
2023/05/08 02:45:04;;;;;;;17.47;14.37;;;12.00;99.90;;;;;;5032873;28;20459;-73
2023/05/08 02:47:39;;;;;;;17.13;14.20;;;12.00;99.90;;;;;;5040874;28;20519;-73
2023/05/08 02:50:14;;;;;;;18.80;14.80;;;11.90;99.90;;;;;;5032919;28;20514;-73
2023/05/08 02:52:45;;;;;;;15.37;13.77;;;11.90;99.90;;;;;;5040513;28;20513;-73
2023/05/08 02:55:23;;;;;;;18.60;14.80;;;11.90;99.90;;;;;;5038023;28;20481;-73
2023/05/08 02:58:00;;;;;;;17.30;13.77;;;11.90;99.90;;;;;;5032408;28;20805;-73
2023/05/08 03:00:31;;;;;;;18.37;14.57;;;11.90;99.90;;;;;;5035042;28;20499;-73
2023/05/08 03:03:04;;;;;;;19.27;14.67;;;11.80;99.90;;;;;;5035114;28;20548;-73
2023/05/08 03:05:37;;;;;;;18.10;13.93;;;11.80;99.90;;;;;;5037526;28;20895;-73
2023/05/08 03:08:06;;;;;;;17.50;14.03;;;11.80;99.90;;;;;;5032180;28;20487;-73
2023/05/08 03:10:36;;;;;;;18.93;14.50;;;11.80;99.90;;;;;;5032066;28;20508;-73
2023/05/08 03:13:05;;;;;;;17.57;14.70;;;11.70;99.90;;;;;;5032478;28;20458;-73
2023/05/08 03:15:35;;;;;;;19.30;15.00;;;11.80;99.90;;;;;;5032194;28;20797;-73
2023/05/08 03:18:07;;;;;;;19.23;15.00;;;11.70;99.90;;;;;;5037262;28;20449;-73
2023/05/08 03:20:39;;;;;;;20.27;14.60;;;11.70;99.90;;;;;;5041174;28;20547;-73
2023/05/08 03:23:09;;;;;;;23.50;15.70;;;11.70;99.90;;;;;;5041980;28;20466;-73
2023/05/08 03:25:37;;;;;;;17.50;14.27;;;11.70;99.90;;;;;;5034168;28;21126;-73
2023/05/08 03:28:05;;;;;;;18.40;13.97;;;11.60;99.90;;;;;;5032325;28;20453;-73
2023/05/08 03:30:36;;;;;;;19.77;14.87;;;11.60;99.90;;;;;;5038551;28;20493;-73
2023/05/08 03:33:03;;;;;;;18.07;13.80;;;11.60;99.90;;;;;;5038317;28;20527;-73
2023/05/08 03:35:31;;;;;;;18.20;14.40;;;11.60;99.90;;;;;;5033419;28;20610;-73
2023/05/08 03:37:59;;;;;;;21.90;15.00;;;11.60;99.90;;;;;;5039321;28;20457;-73
2023/05/08 03:40:27;;;;;;;19.80;14.20;;;11.60;99.90;;;;;;5034771;28;20469;-73
2023/05/08 03:42:55;;;;;;;23.23;12.93;;;11.60;99.90;;;;;;5039275;28;20504;-73
2023/05/08 03:45:22;;;;;;;21.83;15.47;;;11.60;99.90;;;;;;5035192;28;20452;-73
2023/05/08 03:47:52;;;;;;;19.43;15.00;;;11.60;99.90;;;;;;5034744;28;20943;-73
2023/05/08 03:50:19;;;;;;;16.83;13.87;;;11.60;99.90;;;;;;5035987;28;20543;-73
2023/05/08 03:52:46;;;;;;;17.33;13.80;;;11.60;99.90;;;;;;5034529;28;20452;-73
2023/05/08 03:55:14;;;;;;;18.13;14.03;;;11.60;99.90;;;;;;5040000;28;20453;-73
2023/05/08 03:57:50;;;;;;;17.30;13.97;;;11.60;99.90;;;;;;5031118;28;20474;-73
2023/05/08 04:00:26;;;;;;;22.50;14.43;;;11.60;99.90;;;;;;5034041;28;20465;-73
2023/05/08 04:03:03;;;;;;;20.77;13.60;;;11.60;99.90;;;;;;5031790;28;20449;-73
2023/05/08 04:05:36;;;;;;;16.50;13.67;;;11.60;99.90;;;;;;5035672;28;20866;-73
2023/05/08 04:08:09;;;;;;;17.57;14.30;;;11.50;99.90;;;;;;5034377;28;20869;-72
2023/05/08 04:10:42;;;;;;;21.43;13.90;;;11.50;99.90;;;;;;5030733;28;21064;-73
2023/05/08 04:13:11;;;;;;;18.20;14.13;;;11.50;99.90;;;;;;5036804;28;20538;-73
2023/05/08 04:15:43;;;;;;;18.90;14.60;;;11.50;99.90;;;;;;5032893;28;20484;-73
2023/05/08 04:18:14;;;;;;;18.43;13.87;;;11.50;99.90;;;;;;5031275;28;20508;-73
2023/05/08 04:20:42;;;;;;;19.00;13.97;;;11.50;99.90;;;;;;5038886;28;20472;-73
2023/05/08 04:23:09;;;;;;;17.57;13.73;;;11.50;99.90;;;;;;5030851;28;20987;-73
2023/05/08 04:25:40;;;;;;;17.40;14.30;;;11.50;99.90;;;;;;5039320;28;20521;-73
2023/05/08 04:28:08;;;;;;;16.90;14.00;;;11.50;99.90;;;;;;5031328;28;20458;-73
2023/05/08 04:30:35;;;;;;;16.37;13.47;;;11.40;99.90;;;;;;5039041;28;20546;-73
2023/05/08 04:33:03;;;;;;;17.70;14.07;;;11.40;99.90;;;;;;5031062;28;20500;-73
2023/05/08 04:35:30;;;;;;;16.83;13.67;;;11.40;99.90;;;;;;5032554;28;20462;-73
2023/05/08 04:37:58;;;;;;;18.60;13.83;;;11.40;99.90;;;;;;5034918;28;20454;-73
2023/05/08 04:40:25;;;;;;;15.97;13.10;;;11.40;99.90;;;;;;5038471;28;20874;-73
2023/05/08 04:42:53;;;;;;;18.87;14.03;;;11.40;99.90;;;;;;5038275;28;20878;-73
2023/05/08 04:45:20;;;;;;;19.03;14.50;;;11.40;99.90;;;;;;5033812;28;20940;-70
2023/05/08 04:47:47;;;;;;;17.80;13.10;;;11.40;99.90;;;;;;5032209;28;20519;-70
2023/05/08 04:50:13;;;;;;;25.23;14.10;;;11.40;99.90;;;;;;5035600;28;20461;-70
2023/05/08 04:52:40;;;;;;;19.33;13.63;;;11.40;99.90;;;;;;5030902;28;20896;-70
2023/05/08 04:55:08;;;;;;;21.83;13.60;;;11.50;99.90;;;;;;5035750;28;20466;-71
2023/05/08 04:57:35;;;;;;;19.90;13.73;;;11.50;99.90;;;;;;5030176;28;20449;-70
2023/05/08 05:00:04;;;;;;;20.43;14.60;;;11.50;99.90;;;;;;5033827;28;20473;-70
2023/05/08 05:02:31;;;;;;;19.07;14.00;;;11.50;99.90;;;;;;5044453;28;20541;-71
2023/05/08 05:05:00;;;;;;;20.00;14.13;;;11.50;99.90;;;;;;5044282;28;20461;-70
2023/05/08 05:07:26;;;;;;;19.87;14.50;;;11.50;99.90;;;;;;5033899;28;20449;-71
2023/05/08 05:09:53;;;;;;;19.70;14.57;;;11.60;99.90;;;;;;5031562;28;20535;-72
2023/05/08 05:12:20;;;;;;;18.13;13.63;;;11.60;99.90;;;;;;5045238;28;21061;-70
2023/05/08 05:14:46;;;;;;;23.17;14.77;;;11.50;99.90;;;;;;5037977;28;20489;-70
2023/05/08 05:17:14;;;;;;;17.53;13.80;;;11.50;99.90;;;;;;5039831;28;20509;-71
2023/05/08 05:19:41;;;;;;;17.30;13.70;;;11.50;99.90;;;;;;5032775;28;21009;-70
2023/05/08 05:22:07;;;;;;;20.57;14.40;;;11.50;99.90;;;;;;5043773;28;20844;-71
2023/05/08 05:24:35;;;;;;;16.00;13.40;;;11.50;99.90;;;;;;5031975;28;20485;-71
2023/05/08 05:27:01;;;;;;;18.23;13.60;;;11.50;99.90;;;;;;5035177;28;20908;-70
2023/05/08 05:29:29;;;;;;;21.53;13.80;;;11.50;99.90;;;;;;5029580;28;21012;-71
2023/05/08 05:31:55;;;;;;;21.80;13.43;;;11.50;99.90;;;;;;5035865;28;20481;-71
2023/05/08 05:34:23;;;;;;;16.37;13.40;;;11.50;99.90;;;;;;5034395;28;20458;-70
2023/05/08 05:36:50;;;;;;;18.53;14.30;;;11.50;99.90;;;;;;5033877;28;20457;-71
2023/05/08 05:39:16;;;;;;;21.63;13.83;;;11.50;99.90;;;;;;5034173;28;20449;-70
2023/05/08 05:41:43;;;;;;;18.77;12.67;;;11.50;99.90;;;;;;5034211;28;20531;-71
2023/05/08 05:44:10;;;;;;;25.70;13.47;;;11.60;99.90;;;;;;5038364;28;20516;-71
2023/05/08 05:46:37;;;;;;;18.33;13.30;;;11.60;99.90;;;;;;5039747;28;20460;-71
2023/05/08 05:49:04;;;;;;;16.23;13.13;;;11.60;99.90;;;;;;5033823;28;20449;-71
2023/05/08 05:51:32;;;;;;;16.80;14.27;;;11.60;99.90;;;;;;5033483;28;20531;-70
2023/05/08 05:53:58;;;;;;;21.50;13.70;;;11.60;99.90;;;;;;5033558;28;20464;-70
2023/05/08 05:56:25;;;;;;;16.57;13.03;;;11.70;99.90;;;;;;5041498;28;20865;-70
2023/05/08 05:58:52;;;;;;;17.50;13.73;;;11.70;99.90;;;;;;5033494;28;20491;-70
2023/05/08 06:01:18;;;;;;;19.67;13.33;;;11.80;99.90;;;;;;5050341;28;20468;-70
2023/05/08 06:03:46;;;;;;;18.87;13.80;;;11.80;99.90;;;;;;5042866;28;20464;-70
2023/05/08 06:06:12;;;;;;;17.10;13.17;;;11.80;99.90;;;;;;5037505;28;20579;-70
2023/05/08 06:08:40;;;;;;;17.27;13.53;;;11.80;99.90;;;;;;5042583;28;20453;-70
2023/05/08 06:11:07;;;;;;;16.90;13.50;;;11.80;99.90;;;;;;5038305;28;20494;-70
2023/05/08 06:13:34;;;;;;;39.30;14.73;;;11.80;99.90;;;;;;5035340;28;20949;-70
2023/05/08 06:16:00;;;;;;;21.17;14.23;;;11.80;99.90;;;;;;5041243;28;20445;-70
2023/05/08 06:18:27;;;;;;;17.03;13.00;;;11.80;99.90;;;;;;5033189;28;20449;-70
2023/05/08 06:20:57;;;;;;;22.20;13.80;;;11.80;99.90;;;;;;5046604;28;20465;-70
2023/05/08 06:23:24;;;;;;;16.60;13.40;;;11.80;99.90;;;;;;5032439;28;20447;-70
2023/05/08 06:25:52;;;;;;;16.87;13.73;;;11.80;99.90;;;;;;5035220;28;20449;-70
2023/05/08 06:28:21;;;;;;;17.70;13.80;;;11.80;99.90;;;;;;5042267;28;20510;-70
2023/05/08 06:30:47;;;;;;;20.50;14.73;;;11.90;99.90;;;;;;5041305;28;20473;-70
2023/05/08 06:33:14;;;;;;;20.00;15.10;;;11.90;99.90;;;;;;5032130;28;20508;-70
2023/05/08 06:35:41;;;;;;;17.17;13.70;;;11.90;99.90;;;;;;5037286;28;20815;-70
2023/05/08 06:38:07;;;;;;;24.97;14.97;;;11.90;99.90;;;;;;5032500;28;20457;-70
2023/05/08 06:40:34;;;;;;;20.50;14.70;;;12.00;99.90;;;;;;5040826;28;20531;-70
2023/05/08 06:43:02;;;;;;;23.10;14.87;;;12.00;99.90;;;;;;5046776;28;20442;-70
2023/05/08 06:45:28;;;;;;;16.00;14.30;;;12.00;99.90;;;;;;5032194;28;20453;-70
2023/05/08 06:47:55;;;;;;;17.20;13.83;;;12.00;99.90;;;;;;5043801;28;20453;-70
2023/05/08 06:50:22;;;;;;;20.50;14.07;;;12.00;99.90;;;;;;5040182;28;20812;-70
2023/05/08 06:52:48;;;;;;;20.53;14.80;;;12.00;99.90;;;;;;5034910;28;20491;-69
2023/05/08 06:55:15;;;;;;;18.70;13.50;;;11.90;99.90;;;;;;5037583;28;20446;-69
2023/05/08 06:57:42;;;;;;;19.13;14.70;;;11.90;99.90;;;;;;5039024;28;20473;-70
2023/05/08 07:00:11;;;;;;;17.40;13.83;;;11.80;99.90;;;;;;5034778;28;20993;-70
2023/05/08 07:02:38;;;;;;;23.67;14.13;;;11.80;99.90;;;;;;5031904;28;20452;-70
2023/05/08 07:05:06;;;;;;;16.40;13.80;;;11.80;99.90;;;;;;5036192;28;20454;-69
2023/05/08 07:07:32;;;;;;;21.53;15.17;;;11.80;99.90;;;;;;5050612;28;20453;-71
2023/05/08 07:09:59;;;;;;;21.17;14.93;;;11.90;99.90;;;;;;5036004;28;20522;-69
2023/05/08 07:12:25;;;;;;;18.43;14.33;;;11.90;99.90;;;;;;5035626;28;20540;-70
2023/05/08 07:14:52;;;;;;;19.03;15.30;;;12.00;99.90;;;;;;5041666;28;20449;-70
2023/05/08 07:17:20;;;;;;;19.87;15.03;;;12.00;99.90;;;;;;5035962;28;20863;-70
2023/05/08 07:19:50;;;;;;;22.37;14.80;;;12.10;99.90;;;;;;5036796;28;20480;-70
2023/05/08 07:22:17;;;;;;;19.80;15.40;;;12.10;99.90;;;;;;5034165;28;20942;-71
2023/05/08 07:24:44;;;;;;;22.90;16.00;;;12.20;99.90;;;;;;5035741;28;20868;-70
2023/05/08 07:27:13;;;;;;;18.43;15.40;;;12.20;99.90;;;;;;5040495;28;21004;-71
2023/05/08 07:29:41;;;;;;;23.67;15.80;;;12.20;99.90;;;;;;5032734;28;20985;-71
2023/05/08 07:32:08;;;;;;;19.70;15.20;;;12.30;99.90;;;;;;5031405;28;20485;-70
2023/05/08 07:34:36;;;;;;;23.37;16.57;;;12.30;99.90;;;;;;5030975;28;20469;-70
2023/05/08 07:37:02;;;;;;;24.27;15.47;;;12.40;99.90;;;;;;5030941;28;20441;-70
2023/05/08 07:39:29;;;;;;;21.10;15.40;;;12.50;99.90;;;;;;5030575;28;20935;-71
2023/05/08 07:41:56;;;;;;;19.90;15.50;;;12.50;99.90;;;;;;5036812;28;20503;-71
2023/05/08 07:44:22;;;;;;;22.37;16.13;;;12.60;99.90;;;;;;5046397;28;20952;-70
2023/05/08 07:46:49;;;;;;;22.00;16.30;;;12.70;99.90;;;;;;5032866;28;20503;-70
2023/05/08 07:49:16;;;;;;;20.90;15.63;;;12.70;99.90;;;;;;5036864;28;20537;-70
2023/05/08 07:51:44;;;;;;;21.10;15.40;;;12.80;99.90;;;;;;5031041;28;20493;-71
2023/05/08 07:54:11;;;;;;;24.20;15.60;;;12.80;99.90;;;;;;5035459;28;20448;-70
2023/05/08 07:56:37;;;;;;;23.17;15.47;;;12.80;99.90;;;;;;5032533;28;20450;-71
2023/05/08 07:59:04;;;;;;;21.80;15.70;;;12.80;99.90;;;;;;5030886;28;20538;-72
2023/05/08 08:01:31;;;;;;;19.67;14.93;;;12.90;99.90;;;;;;5035500;28;20470;-71
2023/05/08 08:03:57;;;;;;;21.90;15.27;;;12.90;99.90;;;;;;5031642;28;20496;-72
2023/05/08 08:06:24;;;;;;;20.80;14.40;;;12.90;99.90;;;;;;5034256;28;20446;-71
2023/05/08 08:08:52;;;;;;;22.03;15.90;;;13.00;99.90;;;;;;5036357;28;20860;-71
2023/05/08 08:11:18;;;;;;;18.50;14.40;;;13.00;99.90;;;;;;5038753;28;20465;-71
2023/05/08 08:13:45;;;;;;;20.97;14.90;;;13.00;99.90;;;;;;5030410;28;21171;-71
2023/05/08 08:16:12;;;;;;;19.33;15.23;;;13.10;99.90;;;;;;5037929;28;20454;-71
2023/05/08 08:18:38;;;;;;;19.00;15.43;;;13.10;99.90;;;;;;5032218;28;20938;-70
2023/05/08 08:21:06;;;;;;;17.63;14.97;;;13.20;99.90;;;;;;5030381;28;20977;-71
2023/05/08 08:23:33;;;;;;;21.57;15.77;;;13.20;99.90;;;;;;5037640;28;20453;-71
2023/05/08 08:26:01;;;;;;;17.57;15.27;;;13.20;99.90;;;;;;5030448;28;20478;-72
2023/05/08 08:28:27;;;;;;;20.93;15.00;;;13.30;99.90;;;;;;5043462;28;20558;-71
2023/05/08 08:30:54;;;;;;;20.83;14.60;;;13.30;99.90;;;;;;5038729;28;20492;-70
2023/05/08 08:33:21;;;;;;;20.40;13.87;;;13.40;99.90;;;;;;5040666;28;21131;-71
2023/05/08 08:35:47;;;;;;;24.17;15.20;;;13.40;99.90;;;;;;5029864;28;20457;-70
2023/05/08 08:38:15;;;;;;;17.57;14.93;;;13.40;99.90;;;;;;5030370;28;20505;-70
2023/05/08 08:40:42;;;;;;;19.87;15.33;;;13.40;99.90;;;;;;5036044;28;20509;-70
2023/05/08 08:43:10;;;;;;;20.03;14.70;;;13.50;99.90;;;;;;5037610;28;20503;-70
2023/05/08 08:45:37;;;;;;;19.93;15.47;;;13.50;99.90;;;;;;5031035;28;20453;-70
2023/05/08 08:48:05;;;;;;;20.73;15.00;;;13.60;99.90;;;;;;5044624;28;20483;-70
2023/05/08 08:50:32;;;;;;;20.37;15.00;;;13.60;99.90;;;;;;5029758;28;20477;-70
2023/05/08 08:53:07;;;;;;;21.40;15.23;;;13.60;99.90;;;;;;5029944;28;20481;-71
2023/05/08 08:55:36;;;;;;;22.63;16.93;;;13.60;99.90;;;;;;5030685;28;20461;-71
2023/05/08 08:58:13;;;;;;;21.00;15.23;;;13.60;99.90;;;;;;5029691;28;20453;-71
2023/05/08 09:00:41;;;;;;;19.27;14.80;;;13.60;99.90;;;;;;5032890;28;20480;-70
2023/05/08 09:03:08;;;;;;;27.57;18.97;;;13.60;99.90;;;;;;5030122;28;20527;-70
2023/05/08 09:05:35;;;;;;;25.03;15.33;;;13.60;99.90;;;;;;5032868;28;20453;-70
2023/05/08 09:08:02;;;;;;;21.07;16.03;;;13.70;99.90;;;;;;5037441;28;20454;-71
2023/05/08 09:10:29;;;;;;;19.93;14.07;;;13.60;99.90;;;;;;5038163;28;20548;-71
2023/05/08 09:12:56;;;;;;;15.80;13.33;;;13.70;99.90;;;;;;5036990;28;20539;-72
2023/05/08 09:15:24;;;;;;;20.60;15.80;;;13.70;99.90;;;;;;5045079;28;20453;-72
2023/05/08 09:17:50;;;;;;;15.70;14.00;;;13.80;99.90;;;;;;5030802;28;20453;-72
2023/05/08 09:20:17;;;;;;;18.77;13.70;;;13.80;99.90;;;;;;5036048;28;20531;-72
2023/05/08 09:22:44;;;;;;;17.67;13.43;;;13.90;99.90;;;;;;5037292;28;20463;-71
2023/05/08 09:25:11;;;;;;;20.10;14.40;;;13.80;99.90;;;;;;5029480;28;20534;-72
2023/05/08 09:27:38;;;;;;;20.67;14.30;;;13.80;99.90;;;;;;5038168;28;20459;-72
2023/05/08 09:30:06;;;;;;;21.37;14.23;;;13.80;99.90;;;;;;5034547;28;20480;-72
2023/05/08 09:32:35;;;;;;;19.23;12.70;;;13.90;99.90;;;;;;5034816;28;20498;-72
2023/05/08 09:35:02;;;;;;;16.57;13.37;;;14.00;99.90;;;;;;5029987;28;20523;-71
2023/05/08 09:37:29;;;;;;;16.40;13.90;;;14.10;99.90;;;;;;5030032;28;20453;-71
2023/05/08 09:40:13;;;;;;;17.93;13.10;;;14.10;99.90;;;;;;5038102;28;20531;-71
2023/05/08 09:42:40;;;;;;;15.30;12.30;;;14.10;99.90;;;;;;5038115;28;20448;-71
2023/05/08 09:45:08;;;;;;;15.53;13.17;;;14.20;99.90;;;;;;5040131;28;20457;-71
2023/05/08 09:47:38;;;;;;;14.30;11.60;;;14.20;99.90;;;;;;5039187;28;20444;-71
2023/05/08 09:50:06;;;;;;;15.87;13.80;;;14.20;99.90;;;;;;5030539;28;20478;-71
2023/05/08 09:52:34;;;;;;;16.63;13.57;;;14.20;99.90;;;;;;5037314;28;20548;-71
2023/05/08 09:55:02;;;;;;;16.90;13.70;;;14.20;99.90;;;;;;5033453;28;20876;-71
2023/05/08 09:57:30;;;;;;;17.27;14.23;;;14.30;99.90;;;;;;5029844;28;20458;-71
2023/05/08 10:00:06;;;;;;;17.13;13.27;;;14.30;99.90;;;;;;5036807;28;20534;-71
2023/05/08 10:02:33;;;;;;;15.67;12.90;;;14.40;99.90;;;;;;5040333;28;21027;-71
2023/05/08 10:05:02;;;;;;;14.97;12.50;;;14.40;99.90;;;;;;5032775;28;20507;-71
2023/05/08 10:07:30;;;;;;;14.63;12.20;;;14.40;99.90;;;;;;5031557;28;20473;-71
2023/05/08 10:10:01;;;;;;;16.10;12.20;;;14.50;99.90;;;;;;5029697;28;20473;-71
2023/05/08 10:12:29;;;;;;;12.67;11.37;;;14.50;99.90;;;;;;5031466;28;20572;-71
2023/05/08 10:14:56;;;;;;;15.57;12.50;;;14.60;99.90;;;;;;5038989;28;20458;-72
2023/05/08 10:17:27;;;;;;;14.90;12.37;;;14.70;99.90;;;;;;5041838;28;20451;-71
2023/05/08 10:19:59;;;;;;;13.73;12.23;;;14.80;99.90;;;;;;5037862;28;20614;-71
2023/05/08 10:22:29;;;;;;;12.30;10.87;;;14.90;99.90;;;;;;5041229;28;20487;-72
2023/05/08 10:24:57;;;;;;;13.27;10.80;;;15.00;99.90;;;;;;5040905;28;20449;-71
2023/05/08 10:27:34;;;;;;;13.40;10.63;;;15.00;99.90;;;;;;5033310;28;20448;-71
2023/05/08 10:30:02;;;;;;;13.53;10.20;;;15.10;99.90;;;;;;5038977;28;20473;-71
2023/05/08 10:32:39;;;;;;;13.33;11.77;;;15.30;99.90;;;;;;5036639;28;20543;-72
2023/05/08 10:35:09;;;;;;;13.57;10.77;;;15.40;99.90;;;;;;5046543;28;20452;-71
2023/05/08 10:37:38;;;;;;;14.37;10.70;;;15.50;99.90;;;;;;5035250;28;20449;-71
2023/05/08 10:40:06;;;;;;;12.80;11.27;;;15.50;99.90;;;;;;5039878;28;20451;-71
2023/05/08 10:42:35;;;;;;;11.50;10.30;;;15.70;99.90;;;;;;5042231;28;20506;-72
2023/05/08 10:45:02;;;;;;;12.30;11.00;;;15.70;99.90;;;;;;5037194;28;20538;-72
2023/05/08 10:47:38;;;;;;;12.60;10.57;;;15.60;99.90;;;;;;5037077;28;20992;-72
2023/05/08 10:50:16;;;;;;;16.57;11.67;;;15.60;99.90;;;;;;5037427;28;20481;-72
2023/05/08 10:52:51;;;;;;;17.57;11.57;;;15.60;99.90;;;;;;5034362;28;20484;-71
2023/05/08 10:55:24;;;;;;;15.00;13.10;;;15.70;99.90;;;;;;5035641;28;20448;-72
2023/05/08 10:58:11;;;;;;;16.70;12.30;;;15.70;99.90;;;;;;5035652;28;20464;-72
2023/05/08 11:01:15;;;;;;;11.00;9.80;;;15.90;99.90;;;;;;5045368;28;20512;-72
2023/05/08 11:03:50;;;;;;;15.00;12.07;;;16.20;99.90;;;;;;5032908;28;20500;-71
2023/05/08 11:06:17;;;;;;;16.73;11.67;;;16.30;99.90;;;;;;5037606;28;20541;-71
2023/05/08 11:08:50;;;;;;;14.27;11.80;;;16.30;99.90;;;;;;5040634;28;20453;-71
2023/05/08 11:11:25;;;;;;;15.67;12.10;;;16.50;99.90;;;;;;5042609;28;20469;-72
2023/05/08 11:13:55;;;;;;;15.80;12.37;;;16.70;99.90;;;;;;5036681;28;20568;-73
2023/05/08 11:16:55;;;;;;;15.57;12.50;;;16.80;99.90;;;;;;5039467;28;20461;-72
2023/05/08 11:19:23;;;;;;;16.13;13.27;;;16.80;99.90;;;;;;5037551;28;20964;-72
2023/05/08 11:22:16;;;;;;;18.10;12.07;;;16.90;99.90;;;;;;5039833;28;20485;-73
2023/05/08 11:24:50;;;;;;;13.30;11.63;;;17.10;99.90;;;;;;5030705;28;20439;-73
2023/05/08 11:27:17;;;;;;;13.57;11.80;;;17.40;99.90;;;;;;5031039;28;20450;-73
2023/05/08 11:29:44;;;;;;;14.33;11.93;;;17.60;99.90;;;;;;5032621;28;20454;-73
2023/05/08 11:32:11;;;;;;;14.60;12.13;;;17.80;99.90;;;;;;5037842;28;20420;-73
2023/05/08 11:34:48;;;;;;;13.67;12.27;;;18.00;99.90;;;;;;5032327;28;20455;-72
2023/05/08 11:37:19;;;;;;;14.07;12.17;;;18.10;99.90;;;;;;5036813;28;20477;-73
2023/05/08 11:39:48;;;;;;;17.03;12.70;;;18.10;99.90;;;;;;5039059;28;20954;-72
2023/05/08 11:42:34;;;;;;;14.43;12.93;;;17.50;99.90;;;;;;5037270;28;20449;-72
2023/05/08 11:45:04;;;;;;;16.97;13.07;;;17.40;99.90;;;;;;5039327;28;20550;-71
2023/05/08 11:47:37;;;;;;;15.03;13.20;;;17.40;99.90;;;;;;5032807;28;20426;-71
2023/05/08 11:50:05;;;;;;;19.73;13.73;;;17.40;99.90;;;;;;5043084;28;20480;-71
2023/05/08 11:52:33;;;;;;;16.80;14.33;;;17.50;99.90;;;;;;5030579;28;20485;-71
2023/05/08 11:55:04;;;;;;;17.07;14.13;;;17.70;99.90;;;;;;5037859;28;20455;-72
2023/05/08 11:57:31;;;;;;;17.97;14.40;;;17.80;99.90;;;;;;5033998;28;20437;-71
2023/05/08 11:59:58;;;;;;;15.40;13.60;;;17.80;99.90;;;;;;5034141;28;20461;-71
2023/05/08 12:02:35;;;;;;;17.77;13.77;;;17.70;99.90;;;;;;5030903;28;20540;-71
2023/05/08 12:05:02;;;;;;;19.80;15.30;;;17.60;99.90;;;;;;5033938;28;20453;-71
2023/05/08 12:07:29;;;;;;;16.73;14.00;;;17.70;99.90;;;;;;5030514;28;20475;-72
2023/05/08 12:09:56;;;;;;;18.60;16.60;;;17.50;99.90;;;;;;5038084;28;20466;-71
2023/05/08 12:12:35;;;;;;;17.80;15.60;;;17.60;99.90;;;;;;5030676;28;20446;-71
2023/05/08 12:15:05;;;;;;;19.93;16.03;;;17.50;99.90;;;;;;5033106;28;20449;-71
2023/05/08 12:17:32;;;;;;;22.73;16.50;;;17.40;99.90;;;;;;5031639;28;20838;-71
2023/05/08 12:20:10;;;;;;;18.43;16.47;;;17.40;99.90;;;;;;5041658;28;20527;-71
2023/05/08 12:22:36;;;;;;;18.13;15.90;;;17.40;99.90;;;;;;5030097;28;21005;-71
2023/05/08 12:25:04;;;;;;;20.97;15.17;;;17.60;99.90;;;;;;5030070;28;20467;-71
2023/05/08 12:27:31;;;;;;;18.87;15.17;;;17.70;99.90;;;;;;5030191;28;20449;-72
2023/05/08 12:29:58;;;;;;;18.13;16.17;;;17.90;99.90;;;;;;5045261;28;20502;-71
2023/05/08 12:32:25;;;;;;;17.87;15.97;;;18.20;99.90;;;;;;5030475;28;20424;-71
2023/05/08 12:34:52;;;;;;;18.60;15.57;;;18.50;99.90;;;;;;5040747;28;20470;-73
2023/05/08 12:37:24;;;;;;;20.23;16.07;;;18.80;99.90;;;;;;5035285;28;20934;-72
2023/05/08 12:39:50;;;;;;;15.73;14.07;;;19.10;99.90;;;;;;5037763;28;20451;-72